sensor_id;sensor_type;location;lat;lon;timestamp;P1;durP1;ratioP1;P2;durP2;ratioP2
55993;SDS011;67425;52.126;20.638;2023-05-27T00:02:12;7.18;;;2.10;;
55993;SDS011;67425;52.126;20.638;2023-05-27T00:04:38;13.35;;;3.22;;
55993;SDS011;67425;52.126;20.638;2023-05-27T00:07:03;12.20;;;2.20;;
55993;SDS011;67425;52.126;20.638;2023-05-27T00:09:28;13.00;;;2.58;;
55993;SDS011;67425;52.126;20.638;2023-05-27T00:11:54;14.65;;;2.90;;
55993;SDS011;67425;52.126;20.638;2023-05-27T00:14:19;12.63;;;2.85;;
55993;SDS011;67425;52.126;20.638;2023-05-27T00:16:47;16.27;;;2.58;;
55993;SDS011;67425;52.126;20.638;2023-05-27T00:19:14;9.90;;;2.95;;
55993;SDS011;67425;52.126;20.638;2023-05-27T00:21:41;14.68;;;2.70;;
55993;SDS011;67425;52.126;20.638;2023-05-27T00:24:07;13.40;;;2.60;;
55993;SDS011;67425;52.126;20.638;2023-05-27T00:26:32;16.70;;;2.95;;
55993;SDS011;67425;52.126;20.638;2023-05-27T00:28:57;5.00;;;2.15;;
55993;SDS011;67425;52.126;20.638;2023-05-27T00:31:23;11.35;;;2.85;;
55993;SDS011;67425;52.126;20.638;2023-05-27T00:33:49;10.60;;;2.42;;
55993;SDS011;67425;52.126;20.638;2023-05-27T00:36:14;6.88;;;2.20;;
55993;SDS011;67425;52.126;20.638;2023-05-27T00:38:39;7.35;;;2.63;;
55993;SDS011;67425;52.126;20.638;2023-05-27T00:41:05;12.73;;;2.38;;
55993;SDS011;67425;52.126;20.638;2023-05-27T00:43:32;12.50;;;2.65;;
55993;SDS011;67425;52.126;20.638;2023-05-27T00:45:57;11.93;;;2.65;;
55993;SDS011;67425;52.126;20.638;2023-05-27T00:48:23;10.45;;;2.30;;
55993;SDS011;67425;52.126;20.638;2023-05-27T00:50:48;6.55;;;2.30;;
55993;SDS011;67425;52.126;20.638;2023-05-27T00:53:15;10.80;;;2.83;;
55993;SDS011;67425;52.126;20.638;2023-05-27T00:55:41;8.85;;;2.40;;
55993;SDS011;67425;52.126;20.638;2023-05-27T00:58:07;18.10;;;2.97;;
55993;SDS011;67425;52.126;20.638;2023-05-27T01:00:34;11.15;;;2.30;;
55993;SDS011;67425;52.126;20.638;2023-05-27T01:03:02;16.38;;;3.90;;
55993;SDS011;67425;52.126;20.638;2023-05-27T01:05:28;14.38;;;2.33;;
55993;SDS011;67425;52.126;20.638;2023-05-27T01:07:59;8.70;;;3.83;;
55993;SDS011;67425;52.126;20.638;2023-05-27T01:10:52;9.38;;;2.20;;
55993;SDS011;67425;52.126;20.638;2023-05-27T01:13:27;13.38;;;2.72;;
55993;SDS011;67425;52.126;20.638;2023-05-27T01:16:01;10.82;;;3.17;;
55993;SDS011;67425;52.126;20.638;2023-05-27T01:18:30;14.02;;;3.70;;
55993;SDS011;67425;52.126;20.638;2023-05-27T01:21:10;7.38;;;2.20;;
55993;SDS011;67425;52.126;20.638;2023-05-27T01:23:37;14.77;;;2.05;;
55993;SDS011;67425;52.126;20.638;2023-05-27T01:26:03;9.20;;;2.33;;
55993;SDS011;67425;52.126;20.638;2023-05-27T01:28:30;12.20;;;2.90;;
55993;SDS011;67425;52.126;20.638;2023-05-27T01:30:59;14.00;;;2.35;;
55993;SDS011;67425;52.126;20.638;2023-05-27T01:33:31;5.55;;;2.63;;
55993;SDS011;67425;52.126;20.638;2023-05-27T01:36:02;8.55;;;2.50;;
55993;SDS011;67425;52.126;20.638;2023-05-27T01:38:32;9.25;;;2.63;;
55993;SDS011;67425;52.126;20.638;2023-05-27T01:41:01;12.40;;;1.88;;
55993;SDS011;67425;52.126;20.638;2023-05-27T01:43:27;14.07;;;2.22;;
55993;SDS011;67425;52.126;20.638;2023-05-27T01:45:53;11.85;;;3.15;;
55993;SDS011;67425;52.126;20.638;2023-05-27T01:48:18;11.23;;;2.28;;
55993;SDS011;67425;52.126;20.638;2023-05-27T01:50:44;7.43;;;2.10;;
55993;SDS011;67425;52.126;20.638;2023-05-27T01:53:10;18.50;;;2.47;;
55993;SDS011;67425;52.126;20.638;2023-05-27T01:55:36;11.57;;;2.47;;
55993;SDS011;67425;52.126;20.638;2023-05-27T01:58:02;4.72;;;2.10;;
55993;SDS011;67425;52.126;20.638;2023-05-27T02:00:28;9.10;;;3.08;;
55993;SDS011;67425;52.126;20.638;2023-05-27T02:02:53;10.98;;;2.13;;
55993;SDS011;67425;52.126;20.638;2023-05-27T02:05:19;11.05;;;2.33;;
55993;SDS011;67425;52.126;20.638;2023-05-27T02:07:44;11.10;;;3.17;;
55993;SDS011;67425;52.126;20.638;2023-05-27T02:10:09;8.15;;;2.60;;
55993;SDS011;67425;52.126;20.638;2023-05-27T02:12:35;28.33;;;2.95;;
55993;SDS011;67425;52.126;20.638;2023-05-27T02:15:00;12.02;;;2.38;;
55993;SDS011;67425;52.126;20.638;2023-05-27T02:17:26;9.07;;;2.60;;
55993;SDS011;67425;52.126;20.638;2023-05-27T02:19:52;6.82;;;2.75;;
55993;SDS011;67425;52.126;20.638;2023-05-27T02:22:17;7.75;;;2.55;;
55993;SDS011;67425;52.126;20.638;2023-05-27T02:24:43;11.23;;;2.70;;
55993;SDS011;67425;52.126;20.638;2023-05-27T02:27:08;7.75;;;2.67;;
55993;SDS011;67425;52.126;20.638;2023-05-27T02:29:34;19.73;;;2.33;;
55993;SDS011;67425;52.126;20.638;2023-05-27T02:31:59;9.80;;;2.15;;
55993;SDS011;67425;52.126;20.638;2023-05-27T02:34:24;5.82;;;2.20;;
55993;SDS011;67425;52.126;20.638;2023-05-27T02:36:50;6.88;;;2.60;;
55993;SDS011;67425;52.126;20.638;2023-05-27T02:39:15;13.57;;;2.92;;
55993;SDS011;67425;52.126;20.638;2023-05-27T02:41:41;7.78;;;2.47;;
55993;SDS011;67425;52.126;20.638;2023-05-27T02:44:06;6.25;;;2.28;;
55993;SDS011;67425;52.126;20.638;2023-05-27T02:46:32;5.78;;;2.30;;
55993;SDS011;67425;52.126;20.638;2023-05-27T02:48:57;8.32;;;2.42;;
55993;SDS011;67425;52.126;20.638;2023-05-27T02:51:22;5.10;;;2.50;;
55993;SDS011;67425;52.126;20.638;2023-05-27T02:53:49;9.00;;;2.75;;
55993;SDS011;67425;52.126;20.638;2023-05-27T02:56:15;5.60;;;2.60;;
55993;SDS011;67425;52.126;20.638;2023-05-27T02:58:40;7.95;;;2.13;;
55993;SDS011;67425;52.126;20.638;2023-05-27T03:01:05;9.90;;;2.88;;
55993;SDS011;67425;52.126;20.638;2023-05-27T03:03:31;14.98;;;2.65;;
55993;SDS011;67425;52.126;20.638;2023-05-27T03:05:56;6.47;;;2.65;;
55993;SDS011;67425;52.126;20.638;2023-05-27T03:08:21;18.23;;;2.97;;
55993;SDS011;67425;52.126;20.638;2023-05-27T03:10:47;12.07;;;3.75;;
55993;SDS011;67425;52.126;20.638;2023-05-27T03:13:12;7.07;;;2.38;;
55993;SDS011;67425;52.126;20.638;2023-05-27T03:15:38;4.60;;;2.22;;
55993;SDS011;67425;52.126;20.638;2023-05-27T03:18:03;9.45;;;2.97;;
55993;SDS011;67425;52.126;20.638;2023-05-27T03:20:29;4.28;;;2.47;;
55993;SDS011;67425;52.126;20.638;2023-05-27T03:22:54;8.05;;;2.85;;
55993;SDS011;67425;52.126;20.638;2023-05-27T03:25:20;14.68;;;3.03;;
55993;SDS011;67425;52.126;20.638;2023-05-27T03:27:46;21.45;;;2.67;;
55993;SDS011;67425;52.126;20.638;2023-05-27T03:30:11;6.50;;;2.58;;
55993;SDS011;67425;52.126;20.638;2023-05-27T03:32:36;9.48;;;3.03;;
55993;SDS011;67425;52.126;20.638;2023-05-27T03:35:02;7.53;;;2.40;;
55993;SDS011;67425;52.126;20.638;2023-05-27T03:37:27;10.43;;;2.80;;
55993;SDS011;67425;52.126;20.638;2023-05-27T03:39:53;16.38;;;3.10;;
55993;SDS011;67425;52.126;20.638;2023-05-27T03:42:18;10.43;;;2.78;;
55993;SDS011;67425;52.126;20.638;2023-05-27T03:44:44;6.70;;;2.65;;
55993;SDS011;67425;52.126;20.638;2023-05-27T03:47:09;7.78;;;2.47;;
55993;SDS011;67425;52.126;20.638;2023-05-27T03:49:34;13.57;;;2.85;;
55993;SDS011;67425;52.126;20.638;2023-05-27T03:52:00;18.42;;;3.63;;
55993;SDS011;67425;52.126;20.638;2023-05-27T03:54:25;10.68;;;2.90;;
55993;SDS011;67425;52.126;20.638;2023-05-27T03:56:50;19.08;;;2.97;;
55993;SDS011;67425;52.126;20.638;2023-05-27T03:59:16;14.32;;;2.70;;
55993;SDS011;67425;52.126;20.638;2023-05-27T04:01:43;11.60;;;2.75;;
55993;SDS011;67425;52.126;20.638;2023-05-27T04:04:09;8.73;;;3.47;;
55993;SDS011;67425;52.126;20.638;2023-05-27T04:06:35;11.23;;;2.53;;
55993;SDS011;67425;52.126;20.638;2023-05-27T04:09:00;19.35;;;3.08;;
55993;SDS011;67425;52.126;20.638;2023-05-27T04:11:26;15.93;;;3.38;;
55993;SDS011;67425;52.126;20.638;2023-05-27T04:13:52;9.18;;;2.97;;
55993;SDS011;67425;52.126;20.638;2023-05-27T04:16:17;10.90;;;2.75;;
55993;SDS011;67425;52.126;20.638;2023-05-27T04:18:43;14.43;;;3.30;;
55993;SDS011;67425;52.126;20.638;2023-05-27T04:21:14;16.27;;;3.15;;
55993;SDS011;67425;52.126;20.638;2023-05-27T04:23:40;12.10;;;2.53;;
55993;SDS011;67425;52.126;20.638;2023-05-27T04:26:05;10.23;;;1.98;;
55993;SDS011;67425;52.126;20.638;2023-05-27T04:28:31;10.35;;;2.85;;
55993;SDS011;67425;52.126;20.638;2023-05-27T04:30:59;13.32;;;1.98;;
55993;SDS011;67425;52.126;20.638;2023-05-27T04:33:24;10.88;;;2.88;;
55993;SDS011;67425;52.126;20.638;2023-05-27T04:35:50;7.53;;;2.53;;
55993;SDS011;67425;52.126;20.638;2023-05-27T04:38:18;15.10;;;3.08;;
55993;SDS011;67425;52.126;20.638;2023-05-27T04:40:48;18.77;;;2.70;;
55993;SDS011;67425;52.126;20.638;2023-05-27T04:43:17;10.38;;;3.03;;
55993;SDS011;67425;52.126;20.638;2023-05-27T04:45:46;18.10;;;4.03;;
55993;SDS011;67425;52.126;20.638;2023-05-27T04:48:12;15.90;;;2.60;;
55993;SDS011;67425;52.126;20.638;2023-05-27T04:50:39;5.43;;;2.25;;
55993;SDS011;67425;52.126;20.638;2023-05-27T04:53:05;18.25;;;2.95;;
55993;SDS011;67425;52.126;20.638;2023-05-27T04:55:31;3.33;;;1.33;;
55993;SDS011;67425;52.126;20.638;2023-05-27T04:57:57;16.88;;;2.38;;
55993;SDS011;67425;52.126;20.638;2023-05-27T05:00:23;5.60;;;2.78;;
55993;SDS011;67425;52.126;20.638;2023-05-27T05:03:01;11.30;;;3.55;;
55993;SDS011;67425;52.126;20.638;2023-05-27T05:05:27;8.35;;;1.67;;
55993;SDS011;67425;52.126;20.638;2023-05-27T05:07:53;5.55;;;2.22;;
55993;SDS011;67425;52.126;20.638;2023-05-27T05:10:18;12.77;;;2.00;;
55993;SDS011;67425;52.126;20.638;2023-05-27T05:12:43;14.90;;;3.15;;
55993;SDS011;67425;52.126;20.638;2023-05-27T05:15:09;12.68;;;2.45;;
55993;SDS011;67425;52.126;20.638;2023-05-27T05:17:34;6.35;;;2.15;;
55993;SDS011;67425;52.126;20.638;2023-05-27T05:20:00;9.27;;;2.67;;
55993;SDS011;67425;52.126;20.638;2023-05-27T05:22:25;3.20;;;1.80;;
55993;SDS011;67425;52.126;20.638;2023-05-27T05:24:52;8.90;;;1.67;;
55993;SDS011;67425;52.126;20.638;2023-05-27T05:27:18;10.60;;;2.35;;
55993;SDS011;67425;52.126;20.638;2023-05-27T05:29:43;4.80;;;2.00;;
55993;SDS011;67425;52.126;20.638;2023-05-27T05:32:09;6.90;;;2.67;;
55993;SDS011;67425;52.126;20.638;2023-05-27T05:34:38;7.05;;;2.15;;
55993;SDS011;67425;52.126;20.638;2023-05-27T05:37:03;8.15;;;3.05;;
55993;SDS011;67425;52.126;20.638;2023-05-27T05:39:29;6.30;;;2.20;;
55993;SDS011;67425;52.126;20.638;2023-05-27T05:41:55;11.40;;;2.78;;
55993;SDS011;67425;52.126;20.638;2023-05-27T05:44:22;11.32;;;2.90;;
55993;SDS011;67425;52.126;20.638;2023-05-27T05:46:48;16.20;;;2.78;;
55993;SDS011;67425;52.126;20.638;2023-05-27T05:49:13;7.13;;;2.38;;
55993;SDS011;67425;52.126;20.638;2023-05-27T05:51:39;4.57;;;1.33;;
55993;SDS011;67425;52.126;20.638;2023-05-27T05:54:04;6.32;;;2.42;;
55993;SDS011;67425;52.126;20.638;2023-05-27T05:56:29;15.77;;;2.80;;
55993;SDS011;67425;52.126;20.638;2023-05-27T05:58:55;7.72;;;2.53;;
55993;SDS011;67425;52.126;20.638;2023-05-27T06:01:20;12.57;;;2.63;;
55993;SDS011;67425;52.126;20.638;2023-05-27T06:03:45;10.80;;;3.15;;
55993;SDS011;67425;52.126;20.638;2023-05-27T06:06:11;6.65;;;1.58;;
55993;SDS011;67425;52.126;20.638;2023-05-27T06:08:36;11.13;;;2.63;;
55993;SDS011;67425;52.126;20.638;2023-05-27T06:11:02;7.03;;;3.00;;
55993;SDS011;67425;52.126;20.638;2023-05-27T06:13:27;10.27;;;2.22;;
55993;SDS011;67425;52.126;20.638;2023-05-27T06:15:53;6.82;;;2.78;;
55993;SDS011;67425;52.126;20.638;2023-05-27T06:18:20;11.73;;;2.22;;
55993;SDS011;67425;52.126;20.638;2023-05-27T06:20:46;7.85;;;2.28;;
55993;SDS011;67425;52.126;20.638;2023-05-27T06:23:11;2.50;;;1.30;;
55993;SDS011;67425;52.126;20.638;2023-05-27T06:25:37;12.43;;;2.67;;
55993;SDS011;67425;52.126;20.638;2023-05-27T06:28:02;6.78;;;1.95;;
55993;SDS011;67425;52.126;20.638;2023-05-27T06:30:27;6.40;;;2.28;;
55993;SDS011;67425;52.126;20.638;2023-05-27T06:32:53;7.82;;;2.58;;
55993;SDS011;67425;52.126;20.638;2023-05-27T06:35:18;6.20;;;1.55;;
55993;SDS011;67425;52.126;20.638;2023-05-27T06:37:43;9.35;;;2.45;;
55993;SDS011;67425;52.126;20.638;2023-05-27T06:40:09;4.22;;;1.10;;
55993;SDS011;67425;52.126;20.638;2023-05-27T06:42:36;9.63;;;2.25;;
55993;SDS011;67425;52.126;20.638;2023-05-27T06:45:01;2.83;;;1.20;;
55993;SDS011;67425;52.126;20.638;2023-05-27T06:47:27;1.42;;;0.98;;
55993;SDS011;67425;52.126;20.638;2023-05-27T06:49:52;17.15;;;2.40;;
55993;SDS011;67425;52.126;20.638;2023-05-27T06:52:17;12.25;;;2.47;;
55993;SDS011;67425;52.126;20.638;2023-05-27T06:54:43;3.58;;;1.98;;
55993;SDS011;67425;52.126;20.638;2023-05-27T06:57:09;11.75;;;2.30;;
55993;SDS011;67425;52.126;20.638;2023-05-27T06:59:34;15.85;;;2.03;;
55993;SDS011;67425;52.126;20.638;2023-05-27T07:01:59;1.50;;;1.20;;
55993;SDS011;67425;52.126;20.638;2023-05-27T07:04:25;5.65;;;1.42;;
55993;SDS011;67425;52.126;20.638;2023-05-27T07:06:50;7.78;;;1.67;;
55993;SDS011;67425;52.126;20.638;2023-05-27T07:09:16;4.70;;;1.98;;
55993;SDS011;67425;52.126;20.638;2023-05-27T07:11:41;1.58;;;0.90;;
55993;SDS011;67425;52.126;20.638;2023-05-27T07:14:07;5.63;;;2.03;;
55993;SDS011;67425;52.126;20.638;2023-05-27T07:16:34;5.63;;;1.27;;
55993;SDS011;67425;52.126;20.638;2023-05-27T07:19:00;7.78;;;1.10;;
55993;SDS011;67425;52.126;20.638;2023-05-27T07:21:25;4.28;;;1.15;;
55993;SDS011;67425;52.126;20.638;2023-05-27T07:23:50;9.70;;;1.83;;
55993;SDS011;67425;52.126;20.638;2023-05-27T07:26:16;6.32;;;1.52;;
55993;SDS011;67425;52.126;20.638;2023-05-27T07:28:41;6.32;;;1.60;;
55993;SDS011;67425;52.126;20.638;2023-05-27T07:31:06;5.60;;;1.58;;
55993;SDS011;67425;52.126;20.638;2023-05-27T07:33:32;7.70;;;1.63;;
55993;SDS011;67425;52.126;20.638;2023-05-27T07:35:57;2.95;;;1.40;;
55993;SDS011;67425;52.126;20.638;2023-05-27T07:38:22;5.32;;;0.90;;
55993;SDS011;67425;52.126;20.638;2023-05-27T07:40:48;4.90;;;2.25;;
55993;SDS011;67425;52.126;20.638;2023-05-27T07:43:14;15.75;;;1.63;;
55993;SDS011;67425;52.126;20.638;2023-05-27T07:45:39;5.05;;;1.77;;
55993;SDS011;67425;52.126;20.638;2023-05-27T07:48:05;4.18;;;1.13;;
55993;SDS011;67425;52.126;20.638;2023-05-27T07:50:30;8.43;;;1.63;;
55993;SDS011;67425;52.126;20.638;2023-05-27T07:52:55;4.03;;;1.48;;
55993;SDS011;67425;52.126;20.638;2023-05-27T07:55:21;3.03;;;1.63;;
55993;SDS011;67425;52.126;20.638;2023-05-27T07:57:46;4.95;;;1.77;;
55993;SDS011;67425;52.126;20.638;2023-05-27T08:00:12;1.58;;;1.33;;
55993;SDS011;67425;52.126;20.638;2023-05-27T08:02:37;7.53;;;1.20;;
55993;SDS011;67425;52.126;20.638;2023-05-27T08:05:03;5.63;;;1.75;;
55993;SDS011;67425;52.126;20.638;2023-05-27T08:07:31;10.50;;;1.30;;
55993;SDS011;67425;52.126;20.638;2023-05-27T08:09:56;3.42;;;1.10;;
55993;SDS011;67425;52.126;20.638;2023-05-27T08:12:22;5.47;;;1.08;;
55993;SDS011;67425;52.126;20.638;2023-05-27T08:14:48;0.70;;;0.60;;
55993;SDS011;67425;52.126;20.638;2023-05-27T08:17:13;1.35;;;1.08;;
55993;SDS011;67425;52.126;20.638;2023-05-27T08:19:39;3.00;;;0.90;;
55993;SDS011;67425;52.126;20.638;2023-05-27T08:22:05;1.45;;;1.05;;
55993;SDS011;67425;52.126;20.638;2023-05-27T08:24:33;5.30;;;1.83;;
55993;SDS011;67425;52.126;20.638;2023-05-27T08:27:01;10.75;;;1.52;;
55993;SDS011;67425;52.126;20.638;2023-05-27T08:29:27;4.15;;;1.13;;
55993;SDS011;67425;52.126;20.638;2023-05-27T08:31:55;2.33;;;0.93;;
55993;SDS011;67425;52.126;20.638;2023-05-27T08:34:21;3.88;;;1.10;;
55993;SDS011;67425;52.126;20.638;2023-05-27T08:36:47;2.95;;;1.27;;
55993;SDS011;67425;52.126;20.638;2023-05-27T08:39:13;8.18;;;0.90;;
55993;SDS011;67425;52.126;20.638;2023-05-27T08:41:38;3.33;;;1.48;;
55993;SDS011;67425;52.126;20.638;2023-05-27T08:44:04;7.05;;;1.30;;
55993;SDS011;67425;52.126;20.638;2023-05-27T08:46:30;3.22;;;1.08;;
55993;SDS011;67425;52.126;20.638;2023-05-27T08:48:58;5.88;;;1.35;;
55993;SDS011;67425;52.126;20.638;2023-05-27T08:51:23;6.05;;;1.48;;
55993;SDS011;67425;52.126;20.638;2023-05-27T08:53:48;2.28;;;1.20;;
55993;SDS011;67425;52.126;20.638;2023-05-27T08:56:14;4.07;;;1.10;;
55993;SDS011;67425;52.126;20.638;2023-05-27T08:58:41;5.70;;;0.68;;
55993;SDS011;67425;52.126;20.638;2023-05-27T09:01:07;7.22;;;1.30;;
55993;SDS011;67425;52.126;20.638;2023-05-27T09:03:33;2.40;;;1.25;;
55993;SDS011;67425;52.126;20.638;2023-05-27T09:05:58;6.68;;;1.40;;
55993;SDS011;67425;52.126;20.638;2023-05-27T09:08:26;1.98;;;1.05;;
55993;SDS011;67425;52.126;20.638;2023-05-27T09:10:52;2.22;;;0.80;;
55993;SDS011;67425;52.126;20.638;2023-05-27T09:13:27;8.60;;;1.25;;
55993;SDS011;67425;52.126;20.638;2023-05-27T09:16:02;2.22;;;1.13;;
55993;SDS011;67425;52.126;20.638;2023-05-27T09:18:30;4.10;;;1.33;;
55993;SDS011;67425;52.126;20.638;2023-05-27T09:20:57;3.53;;;0.80;;
55993;SDS011;67425;52.126;20.638;2023-05-27T09:23:23;3.28;;;0.60;;
55993;SDS011;67425;52.126;20.638;2023-05-27T09:25:49;1.52;;;0.90;;
55993;SDS011;67425;52.126;20.638;2023-05-27T09:28:23;6.05;;;1.35;;
55993;SDS011;67425;52.126;20.638;2023-05-27T09:31:03;6.53;;;1.20;;
55993;SDS011;67425;52.126;20.638;2023-05-27T09:33:33;1.27;;;0.73;;
55993;SDS011;67425;52.126;20.638;2023-05-27T09:38:29;5.38;;;0.68;;
55993;SDS011;67425;52.126;20.638;2023-05-27T09:40:56;2.72;;;0.70;;
55993;SDS011;67425;52.126;20.638;2023-05-27T09:43:23;1.60;;;1.00;;
55993;SDS011;67425;52.126;20.638;2023-05-27T09:45:52;3.80;;;0.57;;
55993;SDS011;67425;52.126;20.638;2023-05-27T09:48:24;4.60;;;1.30;;
55993;SDS011;67425;52.126;20.638;2023-05-27T09:50:51;3.95;;;0.68;;
55993;SDS011;67425;52.126;20.638;2023-05-27T09:53:18;0.60;;;0.60;;
55993;SDS011;67425;52.126;20.638;2023-05-27T09:55:47;3.13;;;0.95;;
55993;SDS011;67425;52.126;20.638;2023-05-27T09:58:13;0.85;;;0.57;;
55993;SDS011;67425;52.126;20.638;2023-05-27T10:00:40;4.82;;;0.85;;
55993;SDS011;67425;52.126;20.638;2023-05-27T10:03:10;5.47;;;0.70;;
55993;SDS011;67425;52.126;20.638;2023-05-27T10:05:36;3.83;;;0.80;;
55993;SDS011;67425;52.126;20.638;2023-05-27T10:08:02;0.60;;;0.57;;
55993;SDS011;67425;52.126;20.638;2023-05-27T10:10:28;1.15;;;0.85;;
55993;SDS011;67425;52.126;20.638;2023-05-27T10:12:54;4.63;;;0.85;;
55993;SDS011;67425;52.126;20.638;2023-05-27T10:15:26;9.18;;;1.00;;
55993;SDS011;67425;52.126;20.638;2023-05-27T10:20:30;3.72;;;0.98;;
55993;SDS011;67425;52.126;20.638;2023-05-27T10:23:16;0.47;;;0.47;;
55993;SDS011;67425;52.126;20.638;2023-05-27T10:25:48;1.20;;;0.60;;
55993;SDS011;67425;52.126;20.638;2023-05-27T10:28:34;0.50;;;0.50;;
55993;SDS011;67425;52.126;20.638;2023-05-27T10:31:07;4.57;;;0.73;;
55993;SDS011;67425;52.126;20.638;2023-05-27T10:39:03;0.98;;;0.75;;
55993;SDS011;67425;52.126;20.638;2023-05-27T10:41:39;0.95;;;0.68;;
55993;SDS011;67425;52.126;20.638;2023-05-27T10:44:09;2.55;;;0.50;;
55993;SDS011;67425;52.126;20.638;2023-05-27T10:46:42;0.70;;;0.65;;
55993;SDS011;67425;52.126;20.638;2023-05-27T10:49:12;1.65;;;0.45;;
55993;SDS011;67425;52.126;20.638;2023-05-27T10:51:39;1.77;;;0.63;;
55993;SDS011;67425;52.126;20.638;2023-05-27T10:54:05;0.50;;;0.50;;
55993;SDS011;67425;52.126;20.638;2023-05-27T10:56:31;1.23;;;0.63;;
55993;SDS011;67425;52.126;20.638;2023-05-27T10:58:57;1.33;;;0.52;;
55993;SDS011;67425;52.126;20.638;2023-05-27T11:01:26;2.25;;;0.80;;
55993;SDS011;67425;52.126;20.638;2023-05-27T11:03:57;0.60;;;0.60;;
55993;SDS011;67425;52.126;20.638;2023-05-27T11:06:22;3.17;;;0.63;;
55993;SDS011;67425;52.126;20.638;2023-05-27T11:08:49;1.00;;;0.70;;
55993;SDS011;67425;52.126;20.638;2023-05-27T11:11:15;1.20;;;0.57;;
55993;SDS011;67425;52.126;20.638;2023-05-27T11:13:41;3.00;;;0.65;;
55993;SDS011;67425;52.126;20.638;2023-05-27T11:16:08;0.93;;;0.35;;
55993;SDS011;67425;52.126;20.638;2023-05-27T11:18:41;0.70;;;0.70;;
55993;SDS011;67425;52.126;20.638;2023-05-27T11:21:08;2.45;;;0.60;;
55993;SDS011;67425;52.126;20.638;2023-05-27T11:26:01;0.63;;;0.60;;
55993;SDS011;67425;52.126;20.638;2023-05-27T11:28:26;0.68;;;0.52;;
55993;SDS011;67425;52.126;20.638;2023-05-27T11:30:57;0.70;;;0.70;;
55993;SDS011;67425;52.126;20.638;2023-05-27T11:33:32;3.60;;;0.95;;
55993;SDS011;67425;52.126;20.638;2023-05-27T11:36:07;1.45;;;1.00;;
55993;SDS011;67425;52.126;20.638;2023-05-27T11:38:46;2.40;;;1.45;;
55993;SDS011;67425;52.126;20.638;2023-05-27T11:41:12;1.55;;;0.85;;
55993;SDS011;67425;52.126;20.638;2023-05-27T11:43:46;0.90;;;0.90;;
55993;SDS011;67425;52.126;20.638;2023-05-27T11:46:14;0.70;;;0.65;;
55993;SDS011;67425;52.126;20.638;2023-05-27T11:48:39;4.18;;;0.85;;
55993;SDS011;67425;52.126;20.638;2023-05-27T11:51:05;1.00;;;0.90;;
55993;SDS011;67425;52.126;20.638;2023-05-27T11:53:30;2.10;;;0.73;;
55993;SDS011;67425;52.126;20.638;2023-05-27T11:55:55;2.38;;;0.80;;
55993;SDS011;67425;52.126;20.638;2023-05-27T11:58:21;0.77;;;0.70;;
55993;SDS011;67425;52.126;20.638;2023-05-27T12:00:46;4.75;;;0.88;;
55993;SDS011;67425;52.126;20.638;2023-05-27T12:03:11;1.55;;;0.80;;
55993;SDS011;67425;52.126;20.638;2023-05-27T12:05:37;1.17;;;0.73;;
55993;SDS011;67425;52.126;20.638;2023-05-27T12:08:02;0.70;;;0.70;;
55993;SDS011;67425;52.126;20.638;2023-05-27T12:10:28;4.03;;;0.98;;
55993;SDS011;67425;52.126;20.638;2023-05-27T12:13:01;4.60;;;0.70;;
55993;SDS011;67425;52.126;20.638;2023-05-27T12:15:30;1.45;;;0.60;;
55993;SDS011;67425;52.126;20.638;2023-05-27T12:17:56;2.38;;;0.93;;
55993;SDS011;67425;52.126;20.638;2023-05-27T12:20:22;10.18;;;1.50;;
55993;SDS011;67425;52.126;20.638;2023-05-27T12:22:49;15.05;;;1.27;;
55993;SDS011;67425;52.126;20.638;2023-05-27T12:25:14;1.10;;;0.65;;
55993;SDS011;67425;52.126;20.638;2023-05-27T12:27:40;1.20;;;1.00;;
55993;SDS011;67425;52.126;20.638;2023-05-27T12:30:05;1.42;;;0.98;;
55993;SDS011;67425;52.126;20.638;2023-05-27T12:32:31;3.45;;;0.90;;
55993;SDS011;67425;52.126;20.638;2023-05-27T12:34:57;5.45;;;0.85;;
55993;SDS011;67425;52.126;20.638;2023-05-27T12:37:22;1.77;;;0.98;;
55993;SDS011;67425;52.126;20.638;2023-05-27T12:39:49;1.58;;;1.10;;
55993;SDS011;67425;52.126;20.638;2023-05-27T12:42:16;0.73;;;0.68;;
55993;SDS011;67425;52.126;20.638;2023-05-27T12:44:41;4.22;;;0.90;;
55993;SDS011;67425;52.126;20.638;2023-05-27T12:47:07;4.20;;;0.70;;
55993;SDS011;67425;52.126;20.638;2023-05-27T12:49:32;1.50;;;0.65;;
55993;SDS011;67425;52.126;20.638;2023-05-27T12:51:58;0.55;;;0.52;;
55993;SDS011;67425;52.126;20.638;2023-05-27T12:54:24;9.00;;;1.15;;
55993;SDS011;67425;52.126;20.638;2023-05-27T12:56:49;0.88;;;0.30;;
55993;SDS011;67425;52.126;20.638;2023-05-27T12:59:15;1.13;;;0.70;;
55993;SDS011;67425;52.126;20.638;2023-05-27T13:01:40;2.60;;;1.00;;
55993;SDS011;67425;52.126;20.638;2023-05-27T13:04:05;7.35;;;1.20;;
55993;SDS011;67425;52.126;20.638;2023-05-27T13:06:31;3.13;;;0.80;;
55993;SDS011;67425;52.126;20.638;2023-05-27T13:08:56;1.00;;;0.75;;
55993;SDS011;67425;52.126;20.638;2023-05-27T13:11:21;0.80;;;0.80;;
55993;SDS011;67425;52.126;20.638;2023-05-27T13:13:47;4.63;;;1.05;;
55993;SDS011;67425;52.126;20.638;2023-05-27T13:16:13;2.92;;;0.70;;
55993;SDS011;67425;52.126;20.638;2023-05-27T13:18:38;5.78;;;0.85;;
55993;SDS011;67425;52.126;20.638;2023-05-27T13:21:03;1.67;;;0.80;;
55993;SDS011;67425;52.126;20.638;2023-05-27T13:23:29;0.77;;;0.70;;
55993;SDS011;67425;52.126;20.638;2023-05-27T13:25:55;3.40;;;1.00;;
55993;SDS011;67425;52.126;20.638;2023-05-27T13:28:20;4.93;;;1.00;;
55993;SDS011;67425;52.126;20.638;2023-05-27T13:30:45;0.85;;;0.50;;
55993;SDS011;67425;52.126;20.638;2023-05-27T13:33:11;1.35;;;0.80;;
55993;SDS011;67425;52.126;20.638;2023-05-27T13:35:36;0.77;;;0.77;;
55993;SDS011;67425;52.126;20.638;2023-05-27T13:38:02;0.20;;;0.20;;
55993;SDS011;67425;52.126;20.638;2023-05-27T13:40:28;1.48;;;0.90;;
55993;SDS011;67425;52.126;20.638;2023-05-27T13:42:53;3.08;;;0.90;;
55993;SDS011;67425;52.126;20.638;2023-05-27T13:45:19;1.65;;;0.90;;
55993;SDS011;67425;52.126;20.638;2023-05-27T13:47:44;3.13;;;0.75;;
55993;SDS011;67425;52.126;20.638;2023-05-27T13:50:10;6.13;;;0.85;;
55993;SDS011;67425;52.126;20.638;2023-05-27T13:52:35;5.45;;;0.90;;
55993;SDS011;67425;52.126;20.638;2023-05-27T13:55:01;0.95;;;0.82;;
55993;SDS011;67425;52.126;20.638;2023-05-27T13:57:27;3.58;;;1.20;;
55993;SDS011;67425;52.126;20.638;2023-05-27T13:59:52;4.25;;;1.95;;
55993;SDS011;67425;52.126;20.638;2023-05-27T14:02:18;1.27;;;0.75;;
55993;SDS011;67425;52.126;20.638;2023-05-27T14:04:43;7.05;;;1.00;;
55993;SDS011;67425;52.126;20.638;2023-05-27T14:07:08;1.65;;;0.52;;
55993;SDS011;67425;52.126;20.638;2023-05-27T14:09:34;2.28;;;0.88;;
55993;SDS011;67425;52.126;20.638;2023-05-27T14:12:00;2.88;;;0.95;;
55993;SDS011;67425;52.126;20.638;2023-05-27T14:14:25;4.15;;;0.70;;
55993;SDS011;67425;52.126;20.638;2023-05-27T14:16:50;0.65;;;0.65;;
55993;SDS011;67425;52.126;20.638;2023-05-27T14:19:16;6.63;;;0.80;;
55993;SDS011;67425;52.126;20.638;2023-05-27T14:21:41;4.10;;;0.80;;
55993;SDS011;67425;52.126;20.638;2023-05-27T14:24:06;2.88;;;0.73;;
55993;SDS011;67425;52.126;20.638;2023-05-27T14:26:32;0.82;;;0.70;;
55993;SDS011;67425;52.126;20.638;2023-05-27T14:28:58;8.75;;;0.73;;
55993;SDS011;67425;52.126;20.638;2023-05-27T14:31:23;0.40;;;0.28;;
55993;SDS011;67425;52.126;20.638;2023-05-27T14:33:48;4.05;;;0.90;;
55993;SDS011;67425;52.126;20.638;2023-05-27T14:36:14;0.50;;;0.38;;
55993;SDS011;67425;52.126;20.638;2023-05-27T14:38:39;3.25;;;1.02;;
55993;SDS011;67425;52.126;20.638;2023-05-27T14:41:04;1.13;;;0.55;;